Time;durP1;ratioP1;P1;durP2;ratioP2;P2;SDS_P1;SDS_P2;PMS_P1;PMS_P2;Temp;Humidity;BMP_temperature;BMP_pressure;BME280_temperature;BME280_humidity;BME280_pressure;Samples;Min_cycle;Max_cycle;Signal;HPM_P1;HPM_P2
2022/07/30 00:01:38;;;;;;;;;;;21.70;98.00;;;;;;5087490;28;19920;-50
2022/07/30 00:04:04;;;;;;;;;;;21.60;98.50;;;;;;5082472;28;20264;-54
2022/07/30 00:06:30;;;;;;;;;;;21.60;98.40;;;;;;5086349;28;19920;-55
2022/07/30 00:08:55;;;;;;;;;;;21.30;99.30;;;;;;5078765;28;19912;-56
2022/07/30 00:11:21;;;;;;;;;;;21.30;99.70;;;;;;5076332;28;19913;-53
2022/07/30 00:13:46;;;;;;;;;;;21.40;99.90;;;;;;5074855;28;20420;-50
2022/07/30 00:16:12;;;;;;;;;;;21.40;99.90;;;;;;5074458;28;20363;-51
2022/07/30 00:18:38;;;;;;;;;;;21.50;99.90;;;;;;5074062;28;19928;-55
2022/07/30 00:21:03;;;;;;;;;;;21.50;99.90;;;;;;5074447;28;20355;-52
2022/07/30 00:23:29;;;;;;;;;;;21.40;99.90;;;;;;5092738;28;19912;-48
2022/07/30 00:25:54;;;;;;;;;;;21.50;99.90;;;;;;5094195;28;19912;-49
2022/07/30 00:28:20;;;;;;;;;;;21.60;99.90;;;;;;5077240;28;19999;-57
2022/07/30 00:30:45;;;;;;;;;;;21.70;99.90;;;;;;5072032;28;19912;-48
2022/07/30 00:33:11;;;;;;;;;;;21.80;99.90;;;;;;5075705;28;19923;-48
2022/07/30 00:35:37;;;;;;;;;;;22.00;99.90;;;;;;5071622;28;19917;-51
2022/07/30 00:38:03;;;;;;;;;;;22.20;99.90;;;;;;5071110;28;19944;-52
2022/07/30 00:40:28;;;;;;;;;;;22.30;99.90;;;;;;5073263;28;19938;-52
2022/07/30 00:42:54;;;;;;;;;;;22.30;99.90;;;;;;5071912;28;20364;-55
2022/07/30 00:45:20;;;;;;;;;;;22.30;99.90;;;;;;5073639;28;19920;-53
2022/07/30 00:47:46;;;;;;;;;;;22.30;99.90;;;;;;5074517;28;19919;-53
2022/07/30 00:50:12;;;;;;;;;;;22.30;99.90;;;;;;5068288;28;19913;-53
2022/07/30 00:52:38;;;;;;;;;;;22.40;99.90;;;;;;5067083;28;19956;-47
2022/07/30 00:55:05;;;;;;;;;;;22.40;99.90;;;;;;5070005;28;20474;-53
2022/07/30 00:57:30;;;;;;;;;;;22.40;99.90;;;;;;5071054;28;19923;-52
2022/07/30 00:59:56;;;;;;;;;;;22.40;99.90;;;;;;5068735;28;20027;-46
2022/07/30 01:02:22;;;;;;;;;;;22.40;99.90;;;;;;5065044;28;20330;-49
2022/07/30 01:04:47;;;;;;;;;;;22.40;99.90;;;;;;5071098;28;19913;-50
2022/07/30 01:07:13;;;;;;;;;;;22.20;99.90;;;;;;5072530;28;19946;-52
2022/07/30 01:09:39;;;;;;;;;;;22.00;99.90;;;;;;5072640;28;19996;-47
2022/07/30 01:12:05;;;;;;;;;;;21.80;99.90;;;;;;5070717;28;19928;-48
2022/07/30 01:14:32;;;;;;;;;;;21.70;99.90;;;;;;5070830;28;19931;-53
2022/07/30 01:16:58;;;;;;;;;;;21.70;99.90;;;;;;5073001;28;19920;-52
2022/07/30 01:22:15;;;;;;;;;;;21.60;99.90;;;;;;5089088;28;19916;-52
2022/07/30 01:24:42;;;;;;;;;;;21.60;99.90;;;;;;5093441;28;19934;-50
2022/07/30 01:27:09;;;;;;;;;;;21.50;99.90;;;;;;5076801;28;19922;-54
2022/07/30 01:29:35;;;;;;;;;;;21.50;99.90;;;;;;5073165;28;19913;-53
2022/07/30 01:32:01;;;;;;;;;;;21.50;99.90;;;;;;5086773;28;19908;-53
2022/07/30 01:34:31;;;;;;;;;;;21.50;99.90;;;;;;5081340;28;19917;-54
2022/07/30 01:36:57;;;;;;;;;;;21.50;99.90;;;;;;5072358;28;20361;-53
2022/07/30 01:39:25;;;;;;;;;;;21.60;99.90;;;;;;5073833;28;19916;-52
2022/07/30 01:41:51;;;;;;;;;;;21.70;99.90;;;;;;5073716;28;19913;-51
2022/07/30 01:44:17;;;;;;;;;;;21.80;99.90;;;;;;5073314;28;19913;-53
2022/07/30 01:46:43;;;;;;;;;;;21.80;99.90;;;;;;5071511;28;20593;-50
2022/07/30 01:49:09;;;;;;;;;;;21.80;99.90;;;;;;5088856;28;19920;-50
2022/07/30 01:51:36;;;;;;;;;;;21.80;99.90;;;;;;5091557;28;20336;-51
2022/07/30 01:54:01;;;;;;;;;;;21.90;99.90;;;;;;5072393;28;19916;-50
2022/07/30 01:56:28;;;;;;;;;;;21.90;99.90;;;;;;5071291;28;20299;-52
2022/07/30 01:58:54;;;;;;;;;;;21.90;99.90;;;;;;5086245;28;19916;-52
2022/07/30 02:01:20;;;;;;;;;;;21.90;99.90;;;;;;5078171;28;19931;-50
2022/07/30 02:03:45;;;;;;;;;;;21.80;99.90;;;;;;5084001;28;19916;-53
2022/07/30 02:06:19;;;;;;;;;;;21.80;99.90;;;;;;5093231;28;19919;-49
2022/07/30 02:08:48;;;;;;;;;;;21.80;99.90;;;;;;5077620;28;19916;-53
2022/07/30 02:11:14;;;;;;;;;;;21.70;99.90;;;;;;5075168;28;19936;-52
2022/07/30 02:13:49;;;;;;;;;;;21.80;99.90;;;;;;5094135;28;19912;-53
2022/07/30 02:16:44;;;;;;;;;;;21.70;99.90;;;;;;5083413;28;19920;-52
2022/07/30 02:19:14;;;;;;;;;;;21.70;99.90;;;;;;5072779;28;19984;-50
2022/07/30 02:21:43;;;;;;;;;;;21.60;99.90;;;;;;5086087;28;19985;-52
2022/07/30 02:24:13;;;;;;;;;;;21.50;99.90;;;;;;5092416;28;19912;-51
2022/07/30 02:26:40;;;;;;;;;;;21.50;99.90;;;;;;5079849;28;20434;-57
2022/07/30 02:29:07;;;;;;;;;;;21.40;99.90;;;;;;5072631;28;19954;-52
2022/07/30 02:31:33;;;;;;;;;;;21.40;99.90;;;;;;5082150;28;19973;-55
2022/07/30 02:34:01;;;;;;;;;;;21.50;99.90;;;;;;5079869;28;19928;-54
2022/07/30 02:36:28;;;;;;;;;;;21.50;99.90;;;;;;5073607;28;19916;-52
2022/07/30 02:38:55;;;;;;;;;;;21.50;99.90;;;;;;5071547;28;19984;-55
2022/07/30 02:41:22;;;;;;;;;;;21.50;99.90;;;;;;5081508;28;20003;-51
2022/07/30 02:43:49;;;;;;;;;;;21.60;99.90;;;;;;5087142;28;19935;-51
2022/07/30 02:46:16;;;;;;;;;;;21.60;99.90;;;;;;5070045;28;19978;-57
2022/07/30 02:48:43;;;;;;;;;;;21.50;99.90;;;;;;5075532;28;20371;-54
2022/07/30 02:51:09;;;;;;;;;;;21.50;99.90;;;;;;5080429;28;19923;-53
2022/07/30 02:53:36;;;;;;;;;;;21.30;99.90;;;;;;5095101;28;19908;-51
2022/07/30 02:56:02;;;;;;;;;;;21.20;99.90;;;;;;5093688;28;19924;-54
2022/07/30 02:58:28;;;;;;;;;;;21.20;99.90;;;;;;5096658;28;19912;-54
2022/07/30 03:00:54;;;;;;;;;;;21.10;99.90;;;;;;5093960;28;19973;-53
2022/07/30 03:03:20;;;;;;;;;;;21.00;99.90;;;;;;5075819;28;20540;-56
2022/07/30 03:05:48;;;;;;;;;;;20.90;99.90;;;;;;5074939;28;19928;-57
2022/07/30 03:08:15;;;;;;;;;;;20.90;99.90;;;;;;5055552;28;19920;-53
2022/07/30 03:10:43;;;;;;;;;;;20.80;99.90;;;;;;5055766;28;19908;-53
2022/07/30 03:13:09;;;;;;;;;;;20.80;99.90;;;;;;5093025;28;19965;-54
2022/07/30 03:15:36;;;;;;;;;;;20.80;99.90;;;;;;5092274;28;19917;-54
2022/07/30 03:18:02;;;;;;;;;;;20.80;99.90;;;;;;5074453;28;20011;-47
2022/07/30 03:20:29;;;;;;;;;;;20.70;99.90;;;;;;5074839;28;19916;-48
2022/07/30 03:22:56;;;;;;;;;;;20.60;99.90;;;;;;5074664;28;19916;-55
2022/07/30 03:25:23;;;;;;;;;;;20.70;99.90;;;;;;5084277;28;19959;-52
2022/07/30 03:27:49;;;;;;;;;;;20.70;99.90;;;;;;5095500;28;19954;-51
2022/07/30 03:30:15;;;;;;;;;;;20.60;99.90;;;;;;5086435;28;19913;-51
2022/07/30 03:32:41;;;;;;;;;;;20.60;99.90;;;;;;5074889;28;20582;-53
2022/07/30 03:35:07;;;;;;;;;;;20.60;99.90;;;;;;5077805;28;19919;-56
2022/07/30 03:37:34;;;;;;;;;;;20.60;99.90;;;;;;5075341;28;19962;-51
2022/07/30 03:40:00;;;;;;;;;;;20.40;99.90;;;;;;5080156;28;19935;-48
2022/07/30 03:42:26;;;;;;;;;;;20.20;99.90;;;;;;5095003;28;20375;-54
2022/07/30 03:44:52;;;;;;;;;;;20.30;99.90;;;;;;5082376;28;20368;-50
2022/07/30 03:47:19;;;;;;;;;;;20.30;99.90;;;;;;5093686;28;19918;-53
2022/07/30 03:49:45;;;;;;;;;;;20.40;99.90;;;;;;5083190;28;20607;-50
2022/07/30 03:52:11;;;;;;;;;;;20.50;99.90;;;;;;5074304;28;19917;-51
2022/07/30 03:54:36;;;;;;;;;;;20.50;99.90;;;;;;5075716;28;20448;-51
2022/07/30 03:57:03;;;;;;;;;;;20.50;99.90;;;;;;5073941;28;19948;-53
2022/07/30 03:59:29;;;;;;;;;;;20.50;99.90;;;;;;5085357;28;19968;-53
2022/07/30 04:01:59;;;;;;;;;;;20.50;99.90;;;;;;5094644;28;19954;-50
2022/07/30 04:04:24;;;;;;;;;;;20.50;99.90;;;;;;5084432;28;19920;-53
2022/07/30 04:06:50;;;;;;;;;;;20.50;99.90;;;;;;5075605;28;19912;-51
2022/07/30 04:09:15;;;;;;;;;;;20.60;99.90;;;;;;5083027;28;20303;-53
2022/07/30 04:11:41;;;;;;;;;;;20.70;99.90;;;;;;5094794;28;19916;-49
2022/07/30 04:14:07;;;;;;;;;;;20.60;99.90;;;;;;5088384;28;20287;-50
2022/07/30 04:16:45;;;;;;;;;;;20.50;99.90;;;;;;5072899;28;20421;-53
2022/07/30 04:19:21;;;;;;;;;;;20.50;99.90;;;;;;5079253;28;19916;-52
2022/07/30 04:21:47;;;;;;;;;;;20.40;99.90;;;;;;5093917;28;19915;-53
2022/07/30 04:24:14;;;;;;;;;;;20.40;99.90;;;;;;5091921;28;19992;-53
2022/07/30 04:26:40;;;;;;;;;;;20.30;99.90;;;;;;5094579;28;19908;-50
2022/07/30 04:29:08;;;;;;;;;;;20.20;99.90;;;;;;5090254;28;20567;-49
2022/07/30 04:31:34;;;;;;;;;;;20.10;99.90;;;;;;5073085;28;19909;-49
2022/07/30 04:34:01;;;;;;;;;;;19.90;99.90;;;;;;5073609;28;19981;-51
2022/07/30 04:36:26;;;;;;;;;;;19.90;99.90;;;;;;5072642;28;19915;-53
2022/07/30 04:38:52;;;;;;;;;;;19.70;99.90;;;;;;5073214;28;19913;-50
2022/07/30 04:41:18;;;;;;;;;;;19.60;99.90;;;;;;5073228;28;19917;-50
2022/07/30 04:43:43;;;;;;;;;;;19.50;99.90;;;;;;5073756;28;19952;-53
2022/07/30 04:46:09;;;;;;;;;;;19.50;99.90;;;;;;5074022;28;19923;-52
2022/07/30 04:48:34;;;;;;;;;;;19.60;99.90;;;;;;5085436;28;19969;-48
2022/07/30 04:51:01;;;;;;;;;;;19.60;99.90;;;;;;5094379;28;19995;-50
2022/07/30 04:53:27;;;;;;;;;;;19.50;99.90;;;;;;5081044;28;19932;-50
2022/07/30 04:55:54;;;;;;;;;;;19.40;99.90;;;;;;5072718;28;20529;-47
2022/07/30 04:58:20;;;;;;;;;;;19.40;99.90;;;;;;5074305;28;19917;-52
2022/07/30 05:00:47;;;;;;;;;;;19.40;99.90;;;;;;5073271;28;20012;-54
2022/07/30 05:03:13;;;;;;;;;;;19.30;99.90;;;;;;5073145;28;20301;-48
2022/07/30 05:05:39;;;;;;;;;;;19.30;99.90;;;;;;5075639;28;19931;-50
2022/07/30 05:08:05;;;;;;;;;;;19.20;99.90;;;;;;5093805;28;19958;-50
2022/07/30 05:10:30;;;;;;;;;;;19.20;99.90;;;;;;5090480;28;20038;-53
2022/07/30 05:12:56;;;;;;;;;;;19.00;99.90;;;;;;5073067;28;20296;-48
2022/07/30 05:15:22;;;;;;;;;;;19.00;99.90;;;;;;5072248;28;20457;-53
2022/07/30 05:17:48;;;;;;;;;;;18.70;99.90;;;;;;5071314;28;19912;-51
2022/07/30 05:20:13;;;;;;;;;;;18.80;99.90;;;;;;5072608;28;19948;-54
2022/07/30 05:22:39;;;;;;;;;;;18.90;99.90;;;;;;5072254;28;20375;-51
2022/07/30 05:25:05;;;;;;;;;;;18.80;99.90;;;;;;5072472;28;19913;-58
2022/07/30 05:27:30;;;;;;;;;;;18.80;99.90;;;;;;5073791;28;19934;-53
2022/07/30 05:29:56;;;;;;;;;;;18.90;99.90;;;;;;5075285;28;19919;-53
2022/07/30 05:32:21;;;;;;;;;;;18.70;99.90;;;;;;5072060;28;19923;-52
2022/07/30 05:34:47;;;;;;;;;;;18.80;99.90;;;;;;5072059;28;19923;-49
2022/07/30 05:37:12;;;;;;;;;;;18.80;99.90;;;;;;5071774;28;19912;-51
2022/07/30 05:39:38;;;;;;;;;;;19.00;99.90;;;;;;5076936;28;19923;-54
2022/07/30 05:42:03;;;;;;;;;;;19.20;99.90;;;;;;5072293;28;19913;-52
2022/07/30 05:44:29;;;;;;;;;;;19.20;99.90;;;;;;5075732;28;19912;-48
2022/07/30 05:46:55;;;;;;;;;;;19.10;99.90;;;;;;5071408;28;20023;-48
2022/07/30 05:49:20;;;;;;;;;;;19.10;99.90;;;;;;5089081;28;19958;-49
2022/07/30 05:51:46;;;;;;;;;;;19.20;99.90;;;;;;5092329;28;19912;-53
2022/07/30 05:54:11;;;;;;;;;;;19.30;99.90;;;;;;5070712;28;19912;-51
2022/07/30 05:56:37;;;;;;;;;;;19.40;99.90;;;;;;5069964;28;19951;-48
2022/07/30 05:59:03;;;;;;;;;;;19.30;99.90;;;;;;5072081;28;19923;-51
2022/07/30 06:01:28;;;;;;;;;;;19.30;99.90;;;;;;5082638;28;19928;-53
2022/07/30 06:03:54;;;;;;;;;;;19.30;99.90;;;;;;5090239;28;19912;-49
2022/07/30 06:06:19;;;;;;;;;;;19.40;99.90;;;;;;5076837;28;19931;-53
2022/07/30 06:08:45;;;;;;;;;;;19.40;99.90;;;;;;5082028;28;19923;-53
2022/07/30 06:11:10;;;;;;;;;;;19.40;99.90;;;;;;5082025;28;19924;-52
2022/07/30 06:13:36;;;;;;;;;;;19.50;99.90;;;;;;5071910;28;20034;-52
2022/07/30 06:16:02;;;;;;;;;;;19.50;99.90;;;;;;5072207;28;19977;-50
2022/07/30 06:18:28;;;;;;;;;;;19.50;99.90;;;;;;5070917;28;20435;-51
2022/07/30 06:20:54;;;;;;;;;;;19.50;99.90;;;;;;5085718;28;19917;-52
2022/07/30 06:23:20;;;;;;;;;;;19.50;99.90;;;;;;5091766;28;19919;-51
2022/07/30 06:25:46;;;;;;;;;;;19.60;99.90;;;;;;5077742;28;19912;-54
2022/07/30 06:28:13;;;;;;;;;;;19.70;99.90;;;;;;5073451;28;20330;-51
2022/07/30 06:30:39;;;;;;;;;;;19.70;99.90;;;;;;5082677;28;19917;-51
2022/07/30 06:33:05;;;;;;;;;;;19.80;99.90;;;;;;5089288;28;20272;-54
2022/07/30 06:35:30;;;;;;;;;;;20.00;99.90;;;;;;5071000;28;20003;-52
2022/07/30 06:37:56;;;;;;;;;;;20.20;99.90;;;;;;5070884;28;19944;-52
2022/07/30 06:40:22;;;;;;;;;;;20.30;99.90;;;;;;5082558;28;19916;-51
2022/07/30 06:42:47;;;;;;;;;;;20.20;99.90;;;;;;5071051;28;20261;-48
2022/07/30 06:45:13;;;;;;;;;;;20.20;99.90;;;;;;5070543;28;19913;-50
2022/07/30 06:47:38;;;;;;;;;;;20.20;99.90;;;;;;5070603;28;19984;-55
2022/07/30 06:50:04;;;;;;;;;;;20.30;99.90;;;;;;5071168;28;19927;-55
2022/07/30 06:52:30;;;;;;;;;;;20.40;99.90;;;;;;5070833;28;19965;-50
2022/07/30 06:54:55;;;;;;;;;;;20.50;99.90;;;;;;5071075;28;19984;-50
2022/07/30 06:57:21;;;;;;;;;;;20.30;99.90;;;;;;5083524;28;19983;-52
2022/07/30 06:59:46;;;;;;;;;;;20.40;99.90;;;;;;5076406;28;20065;-57
2022/07/30 07:02:12;;;;;;;;;;;20.40;99.90;;;;;;5071796;28;19924;-53
2022/07/30 07:04:37;;;;;;;;;;;20.40;99.90;;;;;;5071555;28;19919;-51
2022/07/30 07:07:03;;;;;;;;;;;20.50;99.90;;;;;;5071852;28;20285;-54
2022/07/30 07:09:28;;;;;;;;;;;20.30;99.90;;;;;;5071214;28;20011;-52
2022/07/30 07:11:54;;;;;;;;;;;20.20;99.90;;;;;;5071113;28;20551;-54
2022/07/30 07:14:20;;;;;;;;;;;20.20;99.90;;;;;;5070312;28;20279;-54
2022/07/30 07:16:47;;;;;;;;;;;20.00;99.90;;;;;;5068169;28;19920;-56
2022/07/30 07:19:12;;;;;;;;;;;20.00;99.90;;;;;;5068876;28;19916;-54
2022/07/30 07:21:38;;;;;;;;;;;20.00;99.90;;;;;;5069775;28;20372;-51
2022/07/30 07:24:04;;;;;;;;;;;19.80;99.90;;;;;;5070360;28;20360;-52
2022/07/30 07:26:30;;;;;;;;;;;19.90;99.90;;;;;;5065344;28;20286;-53
2022/07/30 07:28:56;;;;;;;;;;;19.90;99.90;;;;;;5069388;28;20451;-49
2022/07/30 07:31:21;;;;;;;;;;;19.90;99.90;;;;;;5071605;28;20014;-51
2022/07/30 07:33:47;;;;;;;;;;;19.90;99.90;;;;;;5072331;28;19908;-51
2022/07/30 07:36:13;;;;;;;;;;;20.10;99.90;;;;;;5076690;28;19919;-57
2022/07/30 07:38:39;;;;;;;;;;;19.90;99.90;;;;;;5076598;28;19916;-53
2022/07/30 07:41:04;;;;;;;;;;;20.00;99.90;;;;;;5071466;28;19928;-49
2022/07/30 07:43:30;;;;;;;;;;;20.10;99.90;;;;;;5072122;28;19917;-53
2022/07/30 07:45:57;;;;;;;;;;;20.00;99.90;;;;;;5072645;28;19912;-56
2022/07/30 07:48:23;;;;;;;;;;;20.10;99.90;;;;;;5072673;28;19934;-51
2022/07/30 07:50:48;;;;;;;;;;;20.00;99.90;;;;;;5070406;28;20423;-55
2022/07/30 07:53:14;;;;;;;;;;;20.00;99.90;;;;;;5073869;28;20001;-51
2022/07/30 07:55:39;;;;;;;;;;;20.10;99.90;;;;;;5071357;28;19919;-52
2022/07/30 07:58:05;;;;;;;;;;;20.00;99.90;;;;;;5075122;28;19927;-46
2022/07/30 08:00:31;;;;;;;;;;;19.90;99.90;;;;;;5071218;28;19916;-53
2022/07/30 08:02:56;;;;;;;;;;;19.90;99.90;;;;;;5077877;28;20391;-49
2022/07/30 08:05:22;;;;;;;;;;;19.80;99.90;;;;;;5074299;28;19991;-48
2022/07/30 08:07:48;;;;;;;;;;;19.90;99.90;;;;;;5077055;28;19919;-49
2022/07/30 08:10:14;;;;;;;;;;;19.90;99.90;;;;;;5073772;28;19908;-51
2022/07/30 08:12:40;;;;;;;;;;;19.90;99.90;;;;;;5069358;28;19917;-51
2022/07/30 08:15:08;;;;;;;;;;;19.80;99.90;;;;;;5069458;28;20406;-51
2022/07/30 08:17:38;;;;;;;;;;;19.80;99.90;;;;;;5070192;28;19912;-51
2022/07/30 08:20:04;;;;;;;;;;;19.80;99.90;;;;;;5067950;28;19939;-50
2022/07/30 08:22:29;;;;;;;;;;;19.80;99.90;;;;;;5071811;28;20299;-53
2022/07/30 08:24:55;;;;;;;;;;;19.80;99.90;;;;;;5072763;28;19927;-51
2022/07/30 08:27:21;;;;;;;;;;;19.80;99.90;;;;;;5073103;28;19959;-53
2022/07/30 08:29:46;;;;;;;;;;;19.70;99.90;;;;;;5070053;28;19920;-56
2022/07/30 08:32:12;;;;;;;;;;;19.60;99.90;;;;;;5067208;28;19920;-53
2022/07/30 08:34:38;;;;;;;;;;;19.70;99.90;;;;;;5070989;28;19916;-52
2022/07/30 08:37:03;;;;;;;;;;;19.70;99.90;;;;;;5071370;28;19928;-57
2022/07/30 08:39:29;;;;;;;;;;;19.80;99.90;;;;;;5072134;28;19935;-52
2022/07/30 08:41:55;;;;;;;;;;;19.80;99.90;;;;;;5073273;28;19916;-57
2022/07/30 08:44:21;;;;;;;;;;;20.00;99.90;;;;;;5072373;28;20009;-61
2022/07/30 08:46:47;;;;;;;;;;;19.80;99.90;;;;;;5071084;28;19927;-55
2022/07/30 08:49:13;;;;;;;;;;;19.80;99.90;;;;;;5065907;28;20425;-56
2022/07/30 08:51:39;;;;;;;;;;;19.60;99.90;;;;;;5071987;28;19920;-57
2022/07/30 08:54:05;;;;;;;;;;;19.40;99.90;;;;;;5072360;28;19916;-51
2022/07/30 08:56:31;;;;;;;;;;;19.20;99.90;;;;;;5088013;28;19919;-52
2022/07/30 08:58:56;;;;;;;;;;;19.20;99.90;;;;;;5093378;28;19908;-53
2022/07/30 09:01:22;;;;;;;;;;;19.40;99.90;;;;;;5090856;28;20290;-54
2022/07/30 09:03:47;;;;;;;;;;;19.50;99.90;;;;;;5075131;28;19912;-55
2022/07/30 09:06:14;;;;;;;;;;;19.60;99.90;;;;;;5076100;28;20388;-58
2022/07/30 09:08:39;;;;;;;;;;;19.60;99.90;;;;;;5073165;28;19909;-55
2022/07/30 09:11:05;;;;;;;;;;;19.70;99.90;;;;;;5068278;28;19918;-56
2022/07/30 09:13:36;;;;;;;;;;;19.80;99.90;;;;;;5068495;28;19909;-53
2022/07/30 09:16:03;;;;;;;;;;;19.70;99.90;;;;;;5078445;28;19913;-56
2022/07/30 09:18:32;;;;;;;;;;;19.70;99.90;;;;;;5072780;28;19912;-53
2022/07/30 09:20:58;;;;;;;;;;;19.70;99.90;;;;;;5073730;28;19993;-56
2022/07/30 09:23:24;;;;;;;;;;;19.60;99.90;;;;;;5070882;28;19912;-57
2022/07/30 09:25:50;;;;;;;;;;;19.60;99.90;;;;;;5072948;28;19924;-54
2022/07/30 09:28:15;;;;;;;;;;;19.70;99.90;;;;;;5069991;28;19909;-50
2022/07/30 09:30:43;;;;;;;;;;;19.50;99.90;;;;;;5062500;28;19917;-51
2022/07/30 09:33:09;;;;;;;;;;;19.30;99.90;;;;;;5065554;28;19913;-54
2022/07/30 09:35:34;;;;;;;;;;;19.40;99.90;;;;;;5076695;28;19920;-54
2022/07/30 09:38:00;;;;;;;;;;;19.50;99.90;;;;;;5079463;28;19958;-54
2022/07/30 09:40:25;;;;;;;;;;;19.60;99.90;;;;;;5070597;28;19927;-52
2022/07/30 09:43:02;;;;;;;;;;;19.60;99.90;;;;;;5067512;28;19908;-52
2022/07/30 09:45:30;;;;;;;;;;;19.60;99.90;;;;;;5065253;28;20055;-53
2022/07/30 09:47:56;;;;;;;;;;;19.60;99.90;;;;;;5063069;28;20287;-53
2022/07/30 09:50:23;;;;;;;;;;;19.60;99.90;;;;;;5071988;28;19912;-53
2022/07/30 09:52:50;;;;;;;;;;;19.70;99.90;;;;;;5073031;28;19943;-50
2022/07/30 09:55:32;;;;;;;;;;;19.60;99.90;;;;;;5092248;28;19934;-55
2022/07/30 09:57:59;;;;;;;;;;;19.60;99.90;;;;;;5089901;28;19924;-55
2022/07/30 10:00:26;;;;;;;;;;;19.60;99.90;;;;;;5069274;28;20417;-53
2022/07/30 10:02:52;;;;;;;;;;;19.60;99.90;;;;;;5075260;28;19912;-54
2022/07/30 10:05:19;;;;;;;;;;;19.60;99.90;;;;;;5092640;28;19912;-52
2022/07/30 10:07:57;;;;;;;;;;;19.30;99.90;;;;;;5092262;28;20322;-51
2022/07/30 10:10:25;;;;;;;;;;;19.30;99.90;;;;;;5067942;28;19966;-53
2022/07/30 10:12:51;;;;;;;;;;;19.30;99.90;;;;;;5063752;28;19917;-54
2022/07/30 10:15:18;;;;;;;;;;;19.10;99.90;;;;;;5072697;28;19909;-53
2022/07/30 10:17:44;;;;;;;;;;;19.10;99.90;;;;;;5079855;28;19916;-57
2022/07/30 10:20:10;;;;;;;;;;;19.10;99.90;;;;;;5091904;28;19927;-57
2022/07/30 10:22:37;;;;;;;;;;;19.20;99.90;;;;;;5076024;28;19923;-56
2022/07/30 10:25:03;;;;;;;;;;;19.10;99.90;;;;;;5071732;28;19913;-54
2022/07/30 10:27:29;;;;;;;;;;;19.20;99.90;;;;;;5067299;28;20382;-52
2022/07/30 10:29:56;;;;;;;;;;;19.30;99.90;;;;;;5065252;28;20339;-55
2022/07/30 10:32:22;;;;;;;;;;;19.20;99.90;;;;;;5067050;28;19924;-54
2022/07/30 10:34:47;;;;;;;;;;;19.20;99.90;;;;;;5070763;28;19908;-54
2022/07/30 10:37:15;;;;;;;;;;;19.30;99.90;;;;;;5072805;28;19916;-56
2022/07/30 10:39:45;;;;;;;;;;;19.30;99.90;;;;;;5067445;28;19924;-56
2022/07/30 10:42:10;;;;;;;;;;;19.40;99.90;;;;;;5071538;28;19962;-53
2022/07/30 10:44:51;;;;;;;;;;;19.30;99.90;;;;;;5066147;28;19912;-52
2022/07/30 10:47:17;;;;;;;;;;;19.40;99.90;;;;;;5062137;28;19965;-50
2022/07/30 10:50:01;;;;;;;;;;;19.40;99.90;;;;;;5072261;28;19913;-57
2022/07/30 10:52:43;;;;;;;;;;;19.30;99.90;;;;;;5070994;28;19908;-56
2022/07/30 10:55:35;;;;;;;;;;;19.50;99.90;;;;;;5070974;28;19917;-55
2022/07/30 10:58:00;;;;;;;;;;;19.60;99.90;;;;;;5070179;28;20347;-53
2022/07/30 11:00:27;;;;;;;;;;;19.60;99.90;;;;;;5089153;28;19920;-52
2022/07/30 11:03:11;;;;;;;;;;;19.70;99.90;;;;;;5091114;28;19908;-51
2022/07/30 11:05:37;;;;;;;;;;;19.70;99.90;;;;;;5071569;28;19958;-50
2022/07/30 11:08:21;;;;;;;;;;;19.70;99.90;;;;;;5087400;28;20646;-50
2022/07/30 11:10:47;;;;;;;;;;;19.70;99.90;;;;;;5069624;28;19913;-54
2022/07/30 11:13:12;;;;;;;;;;;19.70;99.90;;;;;;5076190;28;20288;-51
2022/07/30 11:15:55;;;;;;;;;;;19.80;99.90;;;;;;5074379;28;20006;-56
2022/07/30 11:18:21;;;;;;;;;;;19.80;99.90;;;;;;5093788;28;20015;-50
2022/07/30 11:21:07;;;;;;;;;;;19.70;99.90;;;;;;5094999;28;19916;-54
2022/07/30 11:23:37;;;;;;;;;;;19.70;99.90;;;;;;5054632;28;19913;-49
2022/07/30 11:26:03;;;;;;;;;;;19.80;99.90;;;;;;5055098;28;19917;-52
2022/07/30 11:28:32;;;;;;;;;;;19.80;99.90;;;;;;5072649;28;19930;-52
2022/07/30 11:30:58;;;;;;;;;;;19.90;99.90;;;;;;5073939;28;20281;-48
2022/07/30 11:33:24;;;;;;;;;;;19.80;99.90;;;;;;5070973;28;20023;-51
2022/07/30 11:36:06;;;;;;;;;;;19.60;99.90;;;;;;5073871;28;19927;-50
2022/07/30 11:38:51;;;;;;;;;;;19.70;99.90;;;;;;5074054;28;19916;-51
2022/07/30 11:41:16;;;;;;;;;;;19.90;99.90;;;;;;5075046;28;20007;-51
2022/07/30 11:43:42;;;;;;;;;;;20.10;99.90;;;;;;5074512;28;19955;-52
2022/07/30 11:46:13;;;;;;;;;;;20.20;99.90;;;;;;5090729;28;20384;-54
2022/07/30 11:48:40;;;;;;;;;;;20.20;99.90;;;;;;5092723;28;19962;-50
2022/07/30 11:51:06;;;;;;;;;;;20.30;99.90;;;;;;5075850;28;20441;-53
2022/07/30 11:53:31;;;;;;;;;;;20.20;99.90;;;;;;5074327;28;19909;-54
2022/07/30 11:55:59;;;;;;;;;;;20.00;99.90;;;;;;5089442;28;20387;-51
2022/07/30 11:58:24;;;;;;;;;;;19.80;99.90;;;;;;5093961;28;19919;-53
2022/07/30 12:00:50;;;;;;;;;;;19.90;99.90;;;;;;5079035;28;19925;-51
2022/07/30 12:03:17;;;;;;;;;;;20.00;99.90;;;;;;5073792;28;20292;-52
2022/07/30 12:05:43;;;;;;;;;;;20.00;99.90;;;;;;5086611;28;19912;-51
2022/07/30 12:08:09;;;;;;;;;;;20.10;99.90;;;;;;5092535;28;19916;-55
2022/07/30 12:10:37;;;;;;;;;;;20.20;99.90;;;;;;5070827;28;19952;-52
2022/07/30 12:13:13;;;;;;;;;;;20.10;99.90;;;;;;5070493;28;20297;-51
2022/07/30 12:15:42;;;;;;;;;;;20.00;99.90;;;;;;5067704;28;19917;-54
2022/07/30 12:18:11;;;;;;;;;;;20.10;99.90;;;;;;5066764;28;19918;-50
2022/07/30 12:20:37;;;;;;;;;;;20.00;99.90;;;;;;5068422;28;19952;-52
2022/07/30 12:23:08;;;;;;;;;;;20.00;99.90;;;;;;5075032;28;19928;-54
2022/07/30 12:25:36;;;;;;;;;;;20.20;99.90;;;;;;5076445;28;19919;-54
2022/07/30 12:28:02;;;;;;;;;;;20.30;99.90;;;;;;5067535;28;19912;-49
2022/07/30 12:30:28;;;;;;;;;;;20.50;99.90;;;;;;5074908;28;19920;-52
2022/07/30 12:32:53;;;;;;;;;;;20.60;99.90;;;;;;5089723;28;19941;-54
2022/07/30 12:35:19;;;;;;;;;;;20.70;99.90;;;;;;5065271;28;19921;-49
2022/07/30 12:38:01;;;;;;;;;;;20.60;99.90;;;;;;5073321;28;19909;-51
2022/07/30 12:40:26;;;;;;;;;;;20.70;99.90;;;;;;5076171;28;19969;-52
2022/07/30 12:42:52;;;;;;;;;;;21.00;99.90;;;;;;5088956;28;20383;-51
2022/07/30 12:45:25;;;;;;;;;;;21.10;99.90;;;;;;5072120;28;19921;-55
2022/07/30 12:47:50;;;;;;;;;;;21.00;99.90;;;;;;5073329;28;20003;-52
2022/07/30 12:50:16;;;;;;;;;;;20.90;99.90;;;;;;5074295;28;20385;-53
2022/07/30 12:52:46;;;;;;;;;;;21.00;99.90;;;;;;5093164;28;19943;-53
2022/07/30 12:55:12;;;;;;;;;;;20.90;99.90;;;;;;5092466;28;19931;-52
2022/07/30 12:57:50;;;;;;;;;;;20.90;99.90;;;;;;5073024;28;20295;-53
2022/07/30 13:00:16;;;;;;;;;;;20.80;99.90;;;;;;5072943;28;19920;-54
2022/07/30 13:02:42;;;;;;;;;;;20.70;99.90;;;;;;5092189;28;19912;-54
2022/07/30 13:05:07;;;;;;;;;;;20.70;99.90;;;;;;5092956;28;19920;-47
2022/07/30 13:07:33;;;;;;;;;;;20.70;99.90;;;;;;5091032;28;20432;-47
2022/07/30 13:10:05;;;;;;;;;;;20.80;99.90;;;;;;5092639;28;19926;-52
2022/07/30 13:12:31;;;;;;;;;;;20.70;99.90;;;;;;5069965;28;19909;-49
2022/07/30 13:14:56;;;;;;;;;;;20.60;99.90;;;;;;5069822;28;20007;-53
2022/07/30 13:17:22;;;;;;;;;;;20.70;99.90;;;;;;5072817;28;20376;-54
2022/07/30 13:19:47;;;;;;;;;;;20.60;99.90;;;;;;5071071;28;19916;-49
2022/07/30 13:22:13;;;;;;;;;;;20.50;99.90;;;;;;5087935;28;19919;-53
2022/07/30 13:24:39;;;;;;;;;;;20.60;99.90;;;;;;5093356;28;20390;-54
2022/07/30 13:27:05;;;;;;;;;;;20.60;99.90;;;;;;5077752;28;19909;-53
2022/07/30 13:29:30;;;;;;;;;;;20.70;99.90;;;;;;5072665;28;19920;-47
2022/07/30 13:31:56;;;;;;;;;;;20.80;99.90;;;;;;5072545;28;19916;-48
2022/07/30 13:34:21;;;;;;;;;;;20.90;99.90;;;;;;5080765;28;20410;-50
2022/07/30 13:36:47;;;;;;;;;;;20.90;99.90;;;;;;5074220;28;20261;-49
2022/07/30 13:39:12;;;;;;;;;;;20.70;99.90;;;;;;5079122;28;19957;-49
2022/07/30 13:41:40;;;;;;;;;;;20.80;99.90;;;;;;5092569;28;20336;-56
2022/07/30 13:44:06;;;;;;;;;;;20.90;99.90;;;;;;5090685;28;20519;-55
2022/07/30 13:46:32;;;;;;;;;;;21.00;99.90;;;;;;5093692;28;19959;-52
2022/07/30 13:48:58;;;;;;;;;;;21.10;99.90;;;;;;5078757;28;19954;-53
2022/07/30 13:51:23;;;;;;;;;;;20.90;99.90;;;;;;5073043;28;19912;-52
2022/07/30 13:53:49;;;;;;;;;;;21.00;99.90;;;;;;5085036;28;19924;-57
2022/07/30 13:56:15;;;;;;;;;;;21.00;99.90;;;;;;5083914;28;19944;-55
2022/07/30 13:58:41;;;;;;;;;;;21.00;99.90;;;;;;5083027;28;19923;-56
2022/07/30 14:01:06;;;;;;;;;;;21.00;99.90;;;;;;5087786;28;20011;-55
2022/07/30 14:03:32;;;;;;;;;;;21.00;99.90;;;;;;5083560;28;19913;-52
2022/07/30 14:05:58;;;;;;;;;;;21.00;99.90;;;;;;5077144;28;19916;-55
2022/07/30 14:08:24;;;;;;;;;;;21.00;99.90;;;;;;5074178;28;20379;-58
2022/07/30 14:10:49;;;;;;;;;;;20.90;99.90;;;;;;5087685;28;19920;-55
2022/07/30 14:13:15;;;;;;;;;;;21.00;99.90;;;;;;5065177;28;20047;-55
2022/07/30 14:15:40;;;;;;;;;;;21.10;99.90;;;;;;5072256;28;19931;-57
2022/07/30 14:18:06;;;;;;;;;;;21.20;99.90;;;;;;5072366;28;19923;-56